メインページ
METAR-TAF:

METAR-TAF

空港 :

霞ヶ浦駐屯地

かすみがうら, 日本

緯度: 36-02N, 経度: 140-12E, 海抜: 26m

現時点の気象観測

当レポートは2時間55分前の05:38(UTC)に作成
変向風 2kt
気温 8°C
湿度 49%
気圧 1020 hPa
視程10km以上
高度3000ftの雲はほとんどない
高度5000ftの千切れ雲あり

METAR: RJAK 130538Z VRB02KT 9999 FEW030 BKN050 08/M02 Q1020 RMK 1CU030 7SC050 A3014 W/E

時間: 17:33 (08:33 UTC)


TAF: 見つかりません

4,000以上の空港の気象観測と天気予報(METAR報とTAF報)

利用可能な観測所は地図上に黄色い丸と赤い丸で示す。

丸の上にカーソルを重ねると観測所名を参照できる。

次にクリックすると気象観測と天気予報を参照できる。

マップの切り替え:黒色「×」印の緑ボタンをクリックして拡大、「-」印の緑ボタンをクリックして縮小、緑色の三角印をクリックして隣りの地図に切り替え


METAR-TAF: